sensor_id;sensor_type;location;lat;lon;timestamp;P1;durP1;ratioP1;P2;durP2;ratioP2
55915;SDS011;41826;53.246;-6.670;2023-08-06T00:01:12;2.40;;;1.73;;
55915;SDS011;41826;53.246;-6.670;2023-08-06T00:03:37;3.10;;;2.00;;
55915;SDS011;41826;53.246;-6.670;2023-08-06T00:06:04;2.05;;;1.63;;
55915;SDS011;41826;53.246;-6.670;2023-08-06T00:08:31;2.42;;;1.63;;
55915;SDS011;41826;53.246;-6.670;2023-08-06T00:10:57;1.98;;;1.50;;
55915;SDS011;41826;53.246;-6.670;2023-08-06T00:13:22;2.08;;;1.60;;
55915;SDS011;41826;53.246;-6.670;2023-08-06T00:15:47;1.55;;;1.30;;
55915;SDS011;41826;53.246;-6.670;2023-08-06T00:18:13;3.33;;;1.73;;
55915;SDS011;41826;53.246;-6.670;2023-08-06T00:20:39;2.47;;;1.50;;
55915;SDS011;41826;53.246;-6.670;2023-08-06T00:23:05;4.05;;;1.88;;
55915;SDS011;41826;53.246;-6.670;2023-08-06T00:25:31;4.75;;;1.80;;
55915;SDS011;41826;53.246;-6.670;2023-08-06T00:27:56;5.00;;;1.80;;
55915;SDS011;41826;53.246;-6.670;2023-08-06T00:30:21;4.05;;;1.65;;
55915;SDS011;41826;53.246;-6.670;2023-08-06T00:32:47;2.05;;;1.55;;
55915;SDS011;41826;53.246;-6.670;2023-08-06T00:35:12;4.40;;;1.95;;
55915;SDS011;41826;53.246;-6.670;2023-08-06T00:37:38;4.32;;;2.13;;
55915;SDS011;41826;53.246;-6.670;2023-08-06T00:40:04;3.17;;;1.98;;
55915;SDS011;41826;53.246;-6.670;2023-08-06T00:42:31;4.53;;;2.10;;
55915;SDS011;41826;53.246;-6.670;2023-08-06T00:44:56;3.05;;;1.83;;
55915;SDS011;41826;53.246;-6.670;2023-08-06T00:47:22;6.25;;;2.92;;
55915;SDS011;41826;53.246;-6.670;2023-08-06T00:49:48;2.60;;;1.70;;
55915;SDS011;41826;53.246;-6.670;2023-08-06T00:52:13;2.58;;;1.80;;
55915;SDS011;41826;53.246;-6.670;2023-08-06T00:54:39;3.97;;;2.10;;
55915;SDS011;41826;53.246;-6.670;2023-08-06T00:57:04;2.80;;;1.65;;
55915;SDS011;41826;53.246;-6.670;2023-08-06T00:59:32;4.80;;;1.63;;
55915;SDS011;41826;53.246;-6.670;2023-08-06T01:01:59;3.53;;;1.80;;
55915;SDS011;41826;53.246;-6.670;2023-08-06T01:04:24;2.00;;;1.55;;
55915;SDS011;41826;53.246;-6.670;2023-08-06T01:09:30;4.80;;;2.67;;
55915;SDS011;41826;53.246;-6.670;2023-08-06T01:12:25;3.42;;;1.90;;
55915;SDS011;41826;53.246;-6.670;2023-08-06T01:14:55;5.15;;;2.00;;
55915;SDS011;41826;53.246;-6.670;2023-08-06T01:17:23;2.40;;;1.73;;
55915;SDS011;41826;53.246;-6.670;2023-08-06T01:19:51;2.03;;;1.42;;
55915;SDS011;41826;53.246;-6.670;2023-08-06T01:22:17;1.67;;;1.38;;
55915;SDS011;41826;53.246;-6.670;2023-08-06T01:24:43;1.55;;;1.45;;
55915;SDS011;41826;53.246;-6.670;2023-08-06T01:32:27;1.27;;;1.17;;
55915;SDS011;41826;53.246;-6.670;2023-08-06T01:34:56;3.92;;;1.88;;
55915;SDS011;41826;53.246;-6.670;2023-08-06T01:37:25;1.30;;;1.20;;
55915;SDS011;41826;53.246;-6.670;2023-08-06T01:39:50;2.55;;;1.63;;
55915;SDS011;41826;53.246;-6.670;2023-08-06T01:42:16;1.10;;;0.93;;
55915;SDS011;41826;53.246;-6.670;2023-08-06T01:44:41;2.80;;;1.80;;
55915;SDS011;41826;53.246;-6.670;2023-08-06T01:47:07;4.75;;;1.70;;
55915;SDS011;41826;53.246;-6.670;2023-08-06T01:49:32;3.47;;;1.75;;
55915;SDS011;41826;53.246;-6.670;2023-08-06T01:51:57;2.75;;;1.40;;
55915;SDS011;41826;53.246;-6.670;2023-08-06T01:54:23;2.05;;;1.35;;
55915;SDS011;41826;53.246;-6.670;2023-08-06T01:56:48;2.28;;;1.75;;
55915;SDS011;41826;53.246;-6.670;2023-08-06T01:59:13;3.40;;;1.55;;
55915;SDS011;41826;53.246;-6.670;2023-08-06T02:01:39;5.05;;;1.48;;
55915;SDS011;41826;53.246;-6.670;2023-08-06T02:04:04;1.60;;;1.10;;
55915;SDS011;41826;53.246;-6.670;2023-08-06T02:06:29;2.38;;;1.40;;
55915;SDS011;41826;53.246;-6.670;2023-08-06T02:08:55;2.35;;;0.98;;
55915;SDS011;41826;53.246;-6.670;2023-08-06T02:11:21;2.75;;;1.35;;
55915;SDS011;41826;53.246;-6.670;2023-08-06T02:13:46;1.23;;;1.10;;
55915;SDS011;41826;53.246;-6.670;2023-08-06T02:16:12;1.40;;;1.20;;
55915;SDS011;41826;53.246;-6.670;2023-08-06T02:18:37;1.27;;;1.00;;
55915;SDS011;41826;53.246;-6.670;2023-08-06T02:21:02;1.92;;;1.25;;
55915;SDS011;41826;53.246;-6.670;2023-08-06T02:23:28;1.05;;;0.95;;
55915;SDS011;41826;53.246;-6.670;2023-08-06T02:26:00;3.17;;;1.30;;
55915;SDS011;41826;53.246;-6.670;2023-08-06T02:28:26;3.75;;;1.42;;
55915;SDS011;41826;53.246;-6.670;2023-08-06T02:30:52;5.00;;;1.30;;
55915;SDS011;41826;53.246;-6.670;2023-08-06T02:33:17;4.13;;;1.58;;
55915;SDS011;41826;53.246;-6.670;2023-08-06T02:35:42;1.70;;;1.13;;
55915;SDS011;41826;53.246;-6.670;2023-08-06T02:38:08;2.42;;;1.70;;
55915;SDS011;41826;53.246;-6.670;2023-08-06T02:40:33;3.03;;;1.20;;
55915;SDS011;41826;53.246;-6.670;2023-08-06T02:42:59;1.35;;;1.10;;
55915;SDS011;41826;53.246;-6.670;2023-08-06T02:45:24;1.58;;;1.20;;
55915;SDS011;41826;53.246;-6.670;2023-08-06T02:47:49;1.60;;;1.23;;
55915;SDS011;41826;53.246;-6.670;2023-08-06T02:50:15;2.60;;;1.75;;
55915;SDS011;41826;53.246;-6.670;2023-08-06T02:52:40;0.95;;;0.85;;
55915;SDS011;41826;53.246;-6.670;2023-08-06T02:55:06;5.57;;;1.75;;
55915;SDS011;41826;53.246;-6.670;2023-08-06T02:57:32;3.97;;;1.52;;
55915;SDS011;41826;53.246;-6.670;2023-08-06T02:59:57;4.55;;;1.80;;
55915;SDS011;41826;53.246;-6.670;2023-08-06T03:02:23;1.58;;;1.27;;
55915;SDS011;41826;53.246;-6.670;2023-08-06T03:04:48;3.10;;;1.02;;
55915;SDS011;41826;53.246;-6.670;2023-08-06T03:07:14;1.77;;;1.20;;
55915;SDS011;41826;53.246;-6.670;2023-08-06T03:09:39;1.45;;;1.02;;
55915;SDS011;41826;53.246;-6.670;2023-08-06T03:12:05;1.30;;;1.08;;
55915;SDS011;41826;53.246;-6.670;2023-08-06T03:14:31;1.20;;;1.10;;
55915;SDS011;41826;53.246;-6.670;2023-08-06T03:16:56;1.42;;;1.10;;
55915;SDS011;41826;53.246;-6.670;2023-08-06T03:19:21;2.35;;;1.20;;
55915;SDS011;41826;53.246;-6.670;2023-08-06T03:21:47;1.75;;;1.08;;
55915;SDS011;41826;53.246;-6.670;2023-08-06T03:24:13;1.15;;;0.90;;
55915;SDS011;41826;53.246;-6.670;2023-08-06T03:26:39;2.85;;;1.45;;
55915;SDS011;41826;53.246;-6.670;2023-08-06T03:29:04;1.23;;;1.10;;
55915;SDS011;41826;53.246;-6.670;2023-08-06T03:31:30;2.78;;;0.82;;
55915;SDS011;41826;53.246;-6.670;2023-08-06T03:33:55;1.00;;;0.90;;
55915;SDS011;41826;53.246;-6.670;2023-08-06T03:36:20;2.20;;;1.38;;
55915;SDS011;41826;53.246;-6.670;2023-08-06T03:38:46;1.73;;;0.90;;
55915;SDS011;41826;53.246;-6.670;2023-08-06T03:41:12;7.47;;;1.67;;
55915;SDS011;41826;53.246;-6.670;2023-08-06T03:43:37;2.28;;;1.25;;
55915;SDS011;41826;53.246;-6.670;2023-08-06T03:46:02;0.80;;;0.80;;
55915;SDS011;41826;53.246;-6.670;2023-08-06T03:48:28;2.65;;;1.10;;
55915;SDS011;41826;53.246;-6.670;2023-08-06T03:50:53;0.93;;;0.70;;
55915;SDS011;41826;53.246;-6.670;2023-08-06T03:53:19;0.80;;;0.80;;
55915;SDS011;41826;53.246;-6.670;2023-08-06T03:55:44;2.40;;;1.13;;
55915;SDS011;41826;53.246;-6.670;2023-08-06T03:58:09;2.08;;;1.10;;
55915;SDS011;41826;53.246;-6.670;2023-08-06T04:00:35;2.17;;;1.02;;
55915;SDS011;41826;53.246;-6.670;2023-08-06T04:03:00;1.88;;;1.10;;
55915;SDS011;41826;53.246;-6.670;2023-08-06T04:05:25;1.63;;;1.48;;
55915;SDS011;41826;53.246;-6.670;2023-08-06T04:07:51;2.67;;;1.08;;
55915;SDS011;41826;53.246;-6.670;2023-08-06T04:10:16;3.30;;;1.42;;
55915;SDS011;41826;53.246;-6.670;2023-08-06T04:12:41;1.67;;;1.00;;
55915;SDS011;41826;53.246;-6.670;2023-08-06T04:15:08;2.00;;;1.48;;
55915;SDS011;41826;53.246;-6.670;2023-08-06T04:17:34;1.70;;;1.13;;
55915;SDS011;41826;53.246;-6.670;2023-08-06T04:19:59;0.88;;;0.88;;
55915;SDS011;41826;53.246;-6.670;2023-08-06T04:22:26;1.52;;;1.38;;
55915;SDS011;41826;53.246;-6.670;2023-08-06T04:24:52;3.22;;;1.30;;
55915;SDS011;41826;53.246;-6.670;2023-08-06T04:27:18;2.75;;;1.45;;
55915;SDS011;41826;53.246;-6.670;2023-08-06T04:29:44;1.90;;;1.23;;
55915;SDS011;41826;53.246;-6.670;2023-08-06T04:32:10;0.93;;;0.90;;
55915;SDS011;41826;53.246;-6.670;2023-08-06T04:34:36;3.30;;;2.05;;
55915;SDS011;41826;53.246;-6.670;2023-08-06T04:37:02;4.68;;;1.50;;
55915;SDS011;41826;53.246;-6.670;2023-08-06T04:39:28;3.33;;;1.17;;
55915;SDS011;41826;53.246;-6.670;2023-08-06T04:41:57;4.20;;;1.40;;
55915;SDS011;41826;53.246;-6.670;2023-08-06T04:44:23;0.75;;;0.75;;
55915;SDS011;41826;53.246;-6.670;2023-08-06T04:46:48;0.93;;;0.82;;
55915;SDS011;41826;53.246;-6.670;2023-08-06T04:49:14;1.80;;;1.23;;
55915;SDS011;41826;53.246;-6.670;2023-08-06T04:51:39;1.35;;;1.25;;
55915;SDS011;41826;53.246;-6.670;2023-08-06T04:54:05;4.68;;;1.50;;
55915;SDS011;41826;53.246;-6.670;2023-08-06T04:56:30;0.73;;;0.70;;
55915;SDS011;41826;53.246;-6.670;2023-08-06T04:58:57;1.45;;;0.93;;
55915;SDS011;41826;53.246;-6.670;2023-08-06T05:01:22;0.60;;;0.60;;
55915;SDS011;41826;53.246;-6.670;2023-08-06T05:03:47;1.77;;;1.20;;
55915;SDS011;41826;53.246;-6.670;2023-08-06T05:06:13;1.17;;;1.02;;
55915;SDS011;41826;53.246;-6.670;2023-08-06T05:08:38;2.80;;;1.77;;
55915;SDS011;41826;53.246;-6.670;2023-08-06T05:11:03;1.25;;;0.73;;
55915;SDS011;41826;53.246;-6.670;2023-08-06T05:13:29;4.15;;;1.35;;
55915;SDS011;41826;53.246;-6.670;2023-08-06T05:15:54;4.80;;;1.45;;
55915;SDS011;41826;53.246;-6.670;2023-08-06T05:18:20;1.38;;;1.13;;
55915;SDS011;41826;53.246;-6.670;2023-08-06T05:20:45;1.92;;;0.98;;
55915;SDS011;41826;53.246;-6.670;2023-08-06T05:23:11;1.95;;;0.98;;
55915;SDS011;41826;53.246;-6.670;2023-08-06T05:25:39;2.78;;;1.00;;
55915;SDS011;41826;53.246;-6.670;2023-08-06T05:28:05;0.73;;;0.68;;
55915;SDS011;41826;53.246;-6.670;2023-08-06T05:30:30;1.70;;;1.42;;
55915;SDS011;41826;53.246;-6.670;2023-08-06T05:32:56;2.80;;;0.90;;
55915;SDS011;41826;53.246;-6.670;2023-08-06T05:35:22;1.40;;;1.17;;
55915;SDS011;41826;53.246;-6.670;2023-08-06T05:37:48;5.40;;;0.90;;
55915;SDS011;41826;53.246;-6.670;2023-08-06T05:40:14;6.45;;;1.98;;
55915;SDS011;41826;53.246;-6.670;2023-08-06T05:42:40;2.47;;;1.20;;
55915;SDS011;41826;53.246;-6.670;2023-08-06T05:45:06;3.15;;;1.27;;
55915;SDS011;41826;53.246;-6.670;2023-08-06T05:47:32;1.30;;;1.10;;
55915;SDS011;41826;53.246;-6.670;2023-08-06T05:49:57;1.83;;;1.23;;
55915;SDS011;41826;53.246;-6.670;2023-08-06T05:52:22;1.33;;;0.80;;
55915;SDS011;41826;53.246;-6.670;2023-08-06T05:54:48;1.38;;;0.98;;
55915;SDS011;41826;53.246;-6.670;2023-08-06T05:57:13;3.28;;;1.25;;
55915;SDS011;41826;53.246;-6.670;2023-08-06T05:59:40;2.42;;;1.60;;
55915;SDS011;41826;53.246;-6.670;2023-08-06T06:02:05;1.23;;;0.95;;
55915;SDS011;41826;53.246;-6.670;2023-08-06T06:04:31;1.77;;;0.70;;
55915;SDS011;41826;53.246;-6.670;2023-08-06T06:06:56;0.98;;;0.90;;
55915;SDS011;41826;53.246;-6.670;2023-08-06T06:09:21;3.28;;;1.33;;
55915;SDS011;41826;53.246;-6.670;2023-08-06T06:11:47;0.70;;;0.70;;
55915;SDS011;41826;53.246;-6.670;2023-08-06T06:14:14;4.20;;;0.98;;
55915;SDS011;41826;53.246;-6.670;2023-08-06T06:16:40;0.73;;;0.73;;
55915;SDS011;41826;53.246;-6.670;2023-08-06T06:19:05;2.28;;;0.90;;
55915;SDS011;41826;53.246;-6.670;2023-08-06T06:21:31;1.83;;;0.80;;
55915;SDS011;41826;53.246;-6.670;2023-08-06T06:23:56;3.67;;;1.10;;
55915;SDS011;41826;53.246;-6.670;2023-08-06T06:26:22;1.00;;;0.90;;
55915;SDS011;41826;53.246;-6.670;2023-08-06T06:28:47;6.85;;;1.50;;
55915;SDS011;41826;53.246;-6.670;2023-08-06T06:31:12;1.15;;;0.60;;
55915;SDS011;41826;53.246;-6.670;2023-08-06T06:33:38;2.08;;;1.17;;
55915;SDS011;41826;53.246;-6.670;2023-08-06T06:36:03;2.72;;;0.95;;
55915;SDS011;41826;53.246;-6.670;2023-08-06T06:38:29;2.40;;;1.08;;
55915;SDS011;41826;53.246;-6.670;2023-08-06T06:40:57;2.97;;;0.90;;
55915;SDS011;41826;53.246;-6.670;2023-08-06T06:43:23;0.75;;;0.60;;
55915;SDS011;41826;53.246;-6.670;2023-08-06T06:45:52;1.13;;;0.80;;
55915;SDS011;41826;53.246;-6.670;2023-08-06T06:48:19;0.93;;;0.77;;
55915;SDS011;41826;53.246;-6.670;2023-08-06T06:50:47;3.30;;;1.50;;
55915;SDS011;41826;53.246;-6.670;2023-08-06T06:53:13;1.35;;;1.05;;
55915;SDS011;41826;53.246;-6.670;2023-08-06T06:55:39;1.00;;;0.73;;
55915;SDS011;41826;53.246;-6.670;2023-08-06T06:58:04;0.80;;;0.70;;
55915;SDS011;41826;53.246;-6.670;2023-08-06T07:00:29;2.28;;;0.90;;
55915;SDS011;41826;53.246;-6.670;2023-08-06T07:02:55;1.25;;;0.88;;
55915;SDS011;41826;53.246;-6.670;2023-08-06T07:05:20;0.80;;;0.60;;
55915;SDS011;41826;53.246;-6.670;2023-08-06T07:07:45;3.80;;;1.20;;
55915;SDS011;41826;53.246;-6.670;2023-08-06T07:10:11;2.30;;;0.95;;
55915;SDS011;41826;53.246;-6.670;2023-08-06T07:12:36;3.95;;;1.25;;
55915;SDS011;41826;53.246;-6.670;2023-08-06T07:15:03;1.42;;;0.80;;
55915;SDS011;41826;53.246;-6.670;2023-08-06T07:17:30;2.60;;;0.88;;
55915;SDS011;41826;53.246;-6.670;2023-08-06T07:19:55;0.75;;;0.65;;
55915;SDS011;41826;53.246;-6.670;2023-08-06T07:22:20;3.10;;;0.98;;
55915;SDS011;41826;53.246;-6.670;2023-08-06T07:24:46;1.55;;;0.90;;
55915;SDS011;41826;53.246;-6.670;2023-08-06T07:27:11;1.52;;;0.85;;
55915;SDS011;41826;53.246;-6.670;2023-08-06T07:29:36;0.60;;;0.60;;
55915;SDS011;41826;53.246;-6.670;2023-08-06T07:32:02;1.33;;;0.93;;
55915;SDS011;41826;53.246;-6.670;2023-08-06T07:34:27;2.90;;;0.70;;
55915;SDS011;41826;53.246;-6.670;2023-08-06T07:36:53;1.58;;;1.00;;
55915;SDS011;41826;53.246;-6.670;2023-08-06T07:39:18;2.00;;;1.00;;
55915;SDS011;41826;53.246;-6.670;2023-08-06T07:41:43;0.80;;;0.70;;
55915;SDS011;41826;53.246;-6.670;2023-08-06T07:44:10;2.63;;;1.15;;
55915;SDS011;41826;53.246;-6.670;2023-08-06T07:46:36;1.02;;;0.75;;
55915;SDS011;41826;53.246;-6.670;2023-08-06T07:49:01;1.50;;;0.90;;
55915;SDS011;41826;53.246;-6.670;2023-08-06T07:51:27;6.15;;;1.10;;
55915;SDS011;41826;53.246;-6.670;2023-08-06T07:53:53;1.60;;;0.98;;
55915;SDS011;41826;53.246;-6.670;2023-08-06T07:56:18;2.88;;;1.08;;
55915;SDS011;41826;53.246;-6.670;2023-08-06T07:58:44;3.20;;;0.90;;
55915;SDS011;41826;53.246;-6.670;2023-08-06T08:01:09;1.00;;;0.80;;
55915;SDS011;41826;53.246;-6.670;2023-08-06T08:03:34;1.27;;;0.88;;
55915;SDS011;41826;53.246;-6.670;2023-08-06T08:06:00;2.25;;;1.20;;
55915;SDS011;41826;53.246;-6.670;2023-08-06T08:08:25;2.10;;;1.25;;
55915;SDS011;41826;53.246;-6.670;2023-08-06T08:10:51;2.28;;;1.17;;
55915;SDS011;41826;53.246;-6.670;2023-08-06T08:13:16;1.98;;;1.00;;
55915;SDS011;41826;53.246;-6.670;2023-08-06T08:15:41;3.47;;;1.67;;
55915;SDS011;41826;53.246;-6.670;2023-08-06T08:18:07;4.40;;;2.22;;
55915;SDS011;41826;53.246;-6.670;2023-08-06T08:20:32;4.47;;;2.78;;
55915;SDS011;41826;53.246;-6.670;2023-08-06T08:23:00;5.22;;;3.17;;
55915;SDS011;41826;53.246;-6.670;2023-08-06T08:25:26;5.75;;;3.50;;
55915;SDS011;41826;53.246;-6.670;2023-08-06T08:27:52;9.52;;;4.47;;
55915;SDS011;41826;53.246;-6.670;2023-08-06T08:30:18;7.57;;;4.20;;
55915;SDS011;41826;53.246;-6.670;2023-08-06T08:32:43;7.40;;;4.38;;
55915;SDS011;41826;53.246;-6.670;2023-08-06T08:35:09;8.48;;;4.13;;
55915;SDS011;41826;53.246;-6.670;2023-08-06T08:37:34;6.43;;;3.45;;
55915;SDS011;41826;53.246;-6.670;2023-08-06T08:39:59;11.65;;;4.57;;
55915;SDS011;41826;53.246;-6.670;2023-08-06T08:42:25;6.85;;;3.83;;
55915;SDS011;41826;53.246;-6.670;2023-08-06T08:44:51;7.90;;;4.40;;
55915;SDS011;41826;53.246;-6.670;2023-08-06T08:47:18;8.85;;;4.30;;
55915;SDS011;41826;53.246;-6.670;2023-08-06T08:49:44;6.05;;;3.92;;
55915;SDS011;41826;53.246;-6.670;2023-08-06T08:52:11;8.63;;;4.53;;
55915;SDS011;41826;53.246;-6.670;2023-08-06T08:54:39;9.15;;;4.30;;
55915;SDS011;41826;53.246;-6.670;2023-08-06T08:57:05;9.25;;;4.25;;
55915;SDS011;41826;53.246;-6.670;2023-08-06T08:59:32;5.85;;;3.75;;
55915;SDS011;41826;53.246;-6.670;2023-08-06T09:01:59;6.13;;;2.97;;
55915;SDS011;41826;53.246;-6.670;2023-08-06T09:04:26;5.32;;;2.65;;
55915;SDS011;41826;53.246;-6.670;2023-08-06T09:06:53;7.43;;;2.70;;
55915;SDS011;41826;53.246;-6.670;2023-08-06T09:09:34;4.47;;;3.22;;
55915;SDS011;41826;53.246;-6.670;2023-08-06T09:12:08;3.53;;;2.17;;
55915;SDS011;41826;53.246;-6.670;2023-08-06T09:14:45;4.88;;;2.05;;
55915;SDS011;41826;53.246;-6.670;2023-08-06T09:17:10;3.20;;;2.15;;
55915;SDS011;41826;53.246;-6.670;2023-08-06T09:19:36;2.83;;;2.03;;
55915;SDS011;41826;53.246;-6.670;2023-08-06T09:22:01;3.63;;;2.00;;
55915;SDS011;41826;53.246;-6.670;2023-08-06T09:24:27;2.85;;;1.52;;
55915;SDS011;41826;53.246;-6.670;2023-08-06T09:26:52;3.17;;;2.05;;
55915;SDS011;41826;53.246;-6.670;2023-08-06T09:29:19;5.07;;;2.13;;
55915;SDS011;41826;53.246;-6.670;2023-08-06T09:31:48;3.28;;;1.70;;
55915;SDS011;41826;53.246;-6.670;2023-08-06T09:34:19;3.10;;;2.00;;
55915;SDS011;41826;53.246;-6.670;2023-08-06T09:36:50;3.60;;;1.63;;
55915;SDS011;41826;53.246;-6.670;2023-08-06T09:39:17;3.72;;;1.75;;
55915;SDS011;41826;53.246;-6.670;2023-08-06T09:41:44;3.10;;;1.42;;
55915;SDS011;41826;53.246;-6.670;2023-08-06T09:44:17;3.35;;;1.30;;
55915;SDS011;41826;53.246;-6.670;2023-08-06T09:46:47;2.55;;;1.52;;
55915;SDS011;41826;53.246;-6.670;2023-08-06T09:49:14;4.90;;;1.70;;
55915;SDS011;41826;53.246;-6.670;2023-08-06T09:51:40;3.63;;;1.15;;
55915;SDS011;41826;53.246;-6.670;2023-08-06T09:54:06;1.98;;;1.15;;
55915;SDS011;41826;53.246;-6.670;2023-08-06T09:56:33;1.85;;;1.10;;
55915;SDS011;41826;53.246;-6.670;2023-08-06T09:59:03;3.42;;;1.20;;
55915;SDS011;41826;53.246;-6.670;2023-08-06T10:01:32;4.30;;;1.48;;
55915;SDS011;41826;53.246;-6.670;2023-08-06T10:03:59;2.75;;;1.27;;
55915;SDS011;41826;53.246;-6.670;2023-08-06T10:06:28;2.35;;;1.23;;
55915;SDS011;41826;53.246;-6.670;2023-08-06T10:08:54;3.70;;;0.90;;
55915;SDS011;41826;53.246;-6.670;2023-08-06T10:11:23;3.80;;;0.98;;
55915;SDS011;41826;53.246;-6.670;2023-08-06T10:13:53;1.98;;;0.95;;
55915;SDS011;41826;53.246;-6.670;2023-08-06T10:16:31;1.17;;;0.90;;
55915;SDS011;41826;53.246;-6.670;2023-08-06T10:18:58;1.75;;;1.00;;
55915;SDS011;41826;53.246;-6.670;2023-08-06T10:21:24;2.25;;;0.90;;
55915;SDS011;41826;53.246;-6.670;2023-08-06T10:23:55;2.05;;;1.00;;
55915;SDS011;41826;53.246;-6.670;2023-08-06T10:26:24;1.02;;;0.93;;
55915;SDS011;41826;53.246;-6.670;2023-08-06T10:28:50;3.45;;;1.05;;
55915;SDS011;41826;53.246;-6.670;2023-08-06T10:31:17;2.70;;;1.90;;
55915;SDS011;41826;53.246;-6.670;2023-08-06T10:33:43;5.28;;;1.10;;
55915;SDS011;41826;53.246;-6.670;2023-08-06T10:36:13;3.25;;;1.00;;
55915;SDS011;41826;53.246;-6.670;2023-08-06T10:38:47;3.08;;;1.23;;
55915;SDS011;41826;53.246;-6.670;2023-08-06T10:41:46;3.80;;;0.80;;
55915;SDS011;41826;53.246;-6.670;2023-08-06T10:44:09;2.47;;;0.85;;
55915;SDS011;41826;53.246;-6.670;2023-08-06T10:46:36;1.40;;;0.60;;
55915;SDS011;41826;53.246;-6.670;2023-08-06T10:49:03;1.27;;;0.85;;
55915;SDS011;41826;53.246;-6.670;2023-08-06T10:51:29;1.20;;;0.63;;
55915;SDS011;41826;53.246;-6.670;2023-08-06T10:53:54;4.15;;;1.45;;
55915;SDS011;41826;53.246;-6.670;2023-08-06T10:56:21;1.10;;;0.70;;
55915;SDS011;41826;53.246;-6.670;2023-08-06T10:58:48;1.05;;;0.40;;
55915;SDS011;41826;53.246;-6.670;2023-08-06T11:01:14;0.98;;;0.55;;
55915;SDS011;41826;53.246;-6.670;2023-08-06T11:03:40;0.80;;;0.60;;
55915;SDS011;41826;53.246;-6.670;2023-08-06T11:06:07;2.15;;;0.65;;
55915;SDS011;41826;53.246;-6.670;2023-08-06T11:08:36;0.50;;;0.45;;
55915;SDS011;41826;53.246;-6.670;2023-08-06T11:11:13;1.30;;;0.43;;
55915;SDS011;41826;53.246;-6.670;2023-08-06T11:13:40;3.20;;;0.57;;
55915;SDS011;41826;53.246;-6.670;2023-08-06T11:16:09;1.50;;;0.82;;
55915;SDS011;41826;53.246;-6.670;2023-08-06T11:18:35;2.88;;;0.80;;
55915;SDS011;41826;53.246;-6.670;2023-08-06T11:21:01;1.00;;;0.52;;
55915;SDS011;41826;53.246;-6.670;2023-08-06T11:23:27;3.60;;;0.70;;
55915;SDS011;41826;53.246;-6.670;2023-08-06T11:25:56;2.28;;;0.93;;
55915;SDS011;41826;53.246;-6.670;2023-08-06T11:28:22;2.00;;;0.80;;
55915;SDS011;41826;53.246;-6.670;2023-08-06T11:30:49;1.98;;;0.60;;
55915;SDS011;41826;53.246;-6.670;2023-08-06T11:33:19;2.05;;;0.50;;
55915;SDS011;41826;53.246;-6.670;2023-08-06T11:35:46;1.00;;;0.47;;
55915;SDS011;41826;53.246;-6.670;2023-08-06T11:38:13;1.27;;;0.60;;
55915;SDS011;41826;53.246;-6.670;2023-08-06T11:40:39;1.10;;;0.65;;
55915;SDS011;41826;53.246;-6.670;2023-08-06T11:43:05;2.10;;;1.05;;
55915;SDS011;41826;53.246;-6.670;2023-08-06T11:45:32;1.92;;;0.60;;
55915;SDS011;41826;53.246;-6.670;2023-08-06T11:48:00;1.65;;;0.80;;
55915;SDS011;41826;53.246;-6.670;2023-08-06T11:50:25;1.38;;;0.52;;
55915;SDS011;41826;53.246;-6.670;2023-08-06T11:52:58;1.00;;;0.60;;
55915;SDS011;41826;53.246;-6.670;2023-08-06T11:55:25;1.85;;;0.73;;
55915;SDS011;41826;53.246;-6.670;2023-08-06T11:57:51;1.98;;;0.57;;
55915;SDS011;41826;53.246;-6.670;2023-08-06T12:00:17;2.03;;;0.60;;
55915;SDS011;41826;53.246;-6.670;2023-08-06T12:02:45;1.75;;;0.80;;
55915;SDS011;41826;53.246;-6.670;2023-08-06T12:05:15;2.05;;;0.70;;
55915;SDS011;41826;53.246;-6.670;2023-08-06T12:07:42;0.95;;;0.80;;
55915;SDS011;41826;53.246;-6.670;2023-08-06T12:10:10;2.42;;;0.75;;
55915;SDS011;41826;53.246;-6.670;2023-08-06T12:12:35;1.75;;;0.90;;
55915;SDS011;41826;53.246;-6.670;2023-08-06T12:15:02;1.95;;;0.70;;
55915;SDS011;41826;53.246;-6.670;2023-08-06T12:17:28;1.77;;;0.65;;
55915;SDS011;41826;53.246;-6.670;2023-08-06T12:19:54;2.50;;;0.73;;
55915;SDS011;41826;53.246;-6.670;2023-08-06T12:22:19;1.65;;;0.73;;
55915;SDS011;41826;53.246;-6.670;2023-08-06T12:24:45;1.48;;;0.70;;
55915;SDS011;41826;53.246;-6.670;2023-08-06T12:27:12;0.73;;;0.60;;
55915;SDS011;41826;53.246;-6.670;2023-08-06T12:29:42;1.30;;;0.68;;
55915;SDS011;41826;53.246;-6.670;2023-08-06T12:32:11;1.63;;;0.60;;
55915;SDS011;41826;53.246;-6.670;2023-08-06T12:34:40;1.65;;;0.75;;
55915;SDS011;41826;53.246;-6.670;2023-08-06T12:37:07;0.93;;;0.65;;
55915;SDS011;41826;53.246;-6.670;2023-08-06T12:39:33;0.82;;;0.70;;
55915;SDS011;41826;53.246;-6.670;2023-08-06T12:42:00;1.95;;;0.60;;
55915;SDS011;41826;53.246;-6.670;2023-08-06T12:44:26;1.02;;;0.60;;
55915;SDS011;41826;53.246;-6.670;2023-08-06T12:46:52;2.30;;;0.80;;
55915;SDS011;41826;53.246;-6.670;2023-08-06T12:49:19;2.05;;;0.70;;
55915;SDS011;41826;53.246;-6.670;2023-08-06T12:51:48;2.42;;;0.80;;
55915;SDS011;41826;53.246;-6.670;2023-08-06T12:54:13;2.97;;;0.70;;
55915;SDS011;41826;53.246;-6.670;2023-08-06T12:56:39;2.28;;;0.90;;
55915;SDS011;41826;53.246;-6.670;2023-08-06T12:59:04;0.80;;;0.70;;
55915;SDS011;41826;53.246;-6.670;2023-08-06T13:01:30;3.05;;;1.08;;
55915;SDS011;41826;53.246;-6.670;2023-08-06T13:03:55;2.83;;;1.00;;
55915;SDS011;41826;53.246;-6.670;2023-08-06T13:06:20;2.83;;;0.73;;
55915;SDS011;41826;53.246;-6.670;2023-08-06T13:08:46;1.52;;;0.77;;
55915;SDS011;41826;53.246;-6.670;2023-08-06T13:11:11;0.93;;;0.70;;
55915;SDS011;41826;53.246;-6.670;2023-08-06T13:13:36;1.55;;;0.70;;
55915;SDS011;41826;53.246;-6.670;2023-08-06T13:16:02;1.33;;;0.77;;
55915;SDS011;41826;53.246;-6.670;2023-08-06T13:18:28;0.95;;;0.60;;
55915;SDS011;41826;53.246;-6.670;2023-08-06T13:20:54;2.08;;;0.95;;
55915;SDS011;41826;53.246;-6.670;2023-08-06T13:23:19;1.90;;;0.90;;
55915;SDS011;41826;53.246;-6.670;2023-08-06T13:25:45;2.53;;;0.80;;
55915;SDS011;41826;53.246;-6.670;2023-08-06T13:28:10;2.03;;;0.90;;
55915;SDS011;41826;53.246;-6.670;2023-08-06T13:30:36;2.25;;;0.80;;
55915;SDS011;41826;53.246;-6.670;2023-08-06T13:33:06;1.63;;;0.50;;
55915;SDS011;41826;53.246;-6.670;2023-08-06T13:35:35;0.68;;;0.60;;
55915;SDS011;41826;53.246;-6.670;2023-08-06T13:38:00;0.70;;;0.60;;
55915;SDS011;41826;53.246;-6.670;2023-08-06T13:40:28;0.88;;;0.65;;
55915;SDS011;41826;53.246;-6.670;2023-08-06T13:42:58;2.47;;;1.15;;
55915;SDS011;41826;53.246;-6.670;2023-08-06T13:45:23;3.33;;;1.00;;
55915;SDS011;41826;53.246;-6.670;2023-08-06T13:47:49;2.08;;;0.70;;
55915;SDS011;41826;53.246;-6.670;2023-08-06T13:50:14;1.05;;;0.80;;
55915;SDS011;41826;53.246;-6.670;2023-08-06T13:52:40;1.45;;;1.00;;
55915;SDS011;41826;53.246;-6.670;2023-08-06T13:55:06;1.38;;;0.73;;
55915;SDS011;41826;53.246;-6.670;2023-08-06T13:57:32;2.95;;;0.90;;
55915;SDS011;41826;53.246;-6.670;2023-08-06T13:59:57;1.20;;;0.82;;
55915;SDS011;41826;53.246;-6.670;2023-08-06T14:02:23;1.17;;;0.75;;
55915;SDS011;41826;53.246;-6.670;2023-08-06T14:04:48;1.98;;;0.75;;
55915;SDS011;41826;53.246;-6.670;2023-08-06T14:07:14;1.05;;;0.65;;
55915;SDS011;41826;53.246;-6.670;2023-08-06T14:09:39;1.83;;;0.60;;
55915;SDS011;41826;53.246;-6.670;2023-08-06T14:12:05;0.60;;;0.57;;
55915;SDS011;41826;53.246;-6.670;2023-08-06T14:14:31;2.65;;;0.68;;
55915;SDS011;41826;53.246;-6.670;2023-08-06T14:16:56;1.40;;;0.80;;
55915;SDS011;41826;53.246;-6.670;2023-08-06T14:19:22;2.42;;;0.70;;
55915;SDS011;41826;53.246;-6.670;2023-08-06T14:21:47;1.75;;;0.68;;
55915;SDS011;41826;53.246;-6.670;2023-08-06T14:24:13;1.73;;;0.90;;
55915;SDS011;41826;53.246;-6.670;2023-08-06T14:26:38;1.00;;;0.50;;
55915;SDS011;41826;53.246;-6.670;2023-08-06T14:29:04;0.85;;;0.52;;
55915;SDS011;41826;53.246;-6.670;2023-08-06T14:31:29;2.45;;;0.70;;
55915;SDS011;41826;53.246;-6.670;2023-08-06T14:33:55;1.48;;;0.88;;
55915;SDS011;41826;53.246;-6.670;2023-08-06T14:36:20;0.60;;;0.40;;